createdAt,value
2018-03-25T00:01:25.217Z,96.00
2018-03-25T00:03:52.673Z,96.20
2018-03-25T00:06:20.128Z,96.40
2018-03-25T00:08:47.589Z,96.10
2018-03-25T00:11:15.054Z,96.10
2018-03-25T00:13:42.522Z,96.20
2018-03-25T00:16:09.973Z,96.40
2018-03-25T00:18:37.436Z,96.40
2018-03-25T00:21:04.902Z,96.50
2018-03-25T00:23:32.357Z,96.60
2018-03-25T00:25:59.822Z,96.60
2018-03-25T00:28:27.274Z,96.30
2018-03-25T00:30:54.730Z,96.10
2018-03-25T00:33:22.179Z,96.50
2018-03-25T00:35:49.642Z,96.40
2018-03-25T00:38:17.109Z,96.50
2018-03-25T00:40:45.329Z,96.60
2018-03-25T00:43:12.786Z,96.60
2018-03-25T00:45:40.240Z,96.70
2018-03-25T00:48:08.457Z,97.00
2018-03-25T00:50:35.917Z,97.00
2018-03-25T00:53:03.373Z,96.90
2018-03-25T00:55:30.828Z,96.40
2018-03-25T00:57:59.052Z,96.70
2018-03-25T01:00:26.509Z,96.70
2018-03-25T01:02:53.977Z,96.60
2018-03-25T01:05:21.434Z,96.60
2018-03-25T01:07:48.896Z,96.70
2018-03-25T01:10:16.356Z,96.60
2018-03-25T01:12:43.848Z,96.70
2018-03-25T01:15:11.285Z,96.80
2018-03-25T01:17:38.758Z,96.90
2018-03-25T01:20:06.213Z,97.00
2018-03-25T01:22:33.681Z,96.90
2018-03-25T01:25:01.905Z,96.90
2018-03-25T01:27:29.373Z,96.90
2018-03-25T01:29:57.619Z,96.70
2018-03-25T01:32:25.086Z,96.80
2018-03-25T01:34:52.545Z,96.80
2018-03-25T01:37:20.008Z,96.80
2018-03-25T01:39:47.461Z,97.00
2018-03-25T01:42:15.705Z,97.40
2018-03-25T01:44:43.165Z,97.40
2018-03-25T01:47:10.620Z,97.40
2018-03-25T01:49:38.087Z,97.20
2018-03-25T01:52:05.551Z,97.40
2018-03-25T01:54:33.009Z,97.10
2018-03-25T01:57:00.463Z,97.40
2018-03-25T01:59:27.925Z,97.40
2018-03-25T02:01:55.389Z,97.30
2018-03-25T02:04:22.845Z,97.50
2018-03-25T02:06:50.307Z,97.30
2018-03-25T02:09:17.762Z,97.20
2018-03-25T02:11:45.225Z,97.50
2018-03-25T02:14:12.684Z,97.50
2018-03-25T02:16:40.141Z,97.50
2018-03-25T02:19:07.601Z,97.80
2018-03-25T02:21:35.057Z,97.70
2018-03-25T02:24:02.518Z,97.50
2018-03-25T02:26:29.972Z,97.50
2018-03-25T02:28:57.432Z,97.40
2018-03-25T02:31:24.905Z,97.50
2018-03-25T02:33:53.134Z,97.70
2018-03-25T02:36:20.584Z,97.60
2018-03-25T02:38:48.041Z,97.60
2018-03-25T02:41:15.501Z,97.70
2018-03-25T02:43:42.960Z,97.80
2018-03-25T02:46:10.418Z,98.10
2018-03-25T02:48:37.868Z,98.30
2018-03-25T02:51:05.331Z,98.20
2018-03-25T02:53:32.806Z,98.10
2018-03-25T02:56:00.264Z,97.90
2018-03-25T02:58:27.741Z,98.00
2018-03-25T03:00:55.204Z,98.10
2018-03-25T03:03:23.437Z,98.10
2018-03-25T03:05:51.044Z,98.00
2018-03-25T03:08:19.278Z,98.00
2018-03-25T03:10:46.736Z,97.90
2018-03-25T03:13:14.210Z,97.90
2018-03-25T03:15:41.669Z,98.10
2018-03-25T03:18:09.132Z,98.00
2018-03-25T03:20:36.583Z,97.90
2018-03-25T03:23:04.047Z,98.00
2018-03-25T03:25:31.500Z,98.20
2018-03-25T03:27:58.970Z,98.30
2018-03-25T03:30:27.196Z,97.80
2018-03-25T03:32:54.668Z,97.80
2018-03-25T03:35:22.122Z,97.80
2018-03-25T03:37:49.589Z,97.80
2018-03-25T03:40:17.048Z,97.60
2018-03-25T03:42:44.504Z,97.80
2018-03-25T03:45:11.968Z,98.00
2018-03-25T03:47:39.436Z,97.80
2018-03-25T03:50:07.664Z,97.70
2018-03-25T03:52:35.112Z,97.70
2018-03-25T03:55:02.572Z,97.80
2018-03-25T03:57:30.029Z,97.80
2018-03-25T03:59:57.494Z,98.00
2018-03-25T04:02:24.940Z,97.80
2018-03-25T04:04:52.397Z,97.70
2018-03-25T04:07:19.852Z,97.80
2018-03-25T04:09:47.318Z,97.90
2018-03-25T04:12:14.776Z,97.50
2018-03-25T04:14:42.241Z,97.60
2018-03-25T04:17:09.706Z,97.60
2018-03-25T04:19:37.289Z,97.60
2018-03-25T04:22:05.509Z,97.50
2018-03-25T04:24:32.969Z,97.50
2018-03-25T04:27:00.419Z,97.50
2018-03-25T04:29:27.889Z,97.70
2018-03-25T04:31:55.339Z,97.80
2018-03-25T04:34:22.804Z,97.90
2018-03-25T04:36:51.038Z,98.00
2018-03-25T04:39:18.509Z,97.90
2018-03-25T04:41:45.974Z,98.10
2018-03-25T04:44:13.431Z,98.00
2018-03-25T04:46:40.889Z,98.00
2018-03-25T04:49:08.364Z,98.10
2018-03-25T04:51:35.821Z,98.10
2018-03-25T04:54:03.277Z,97.90
2018-03-25T04:56:30.732Z,97.80
2018-03-25T04:58:58.958Z,97.50
2018-03-25T05:01:27.184Z,97.60
2018-03-25T05:03:54.657Z,97.60
2018-03-25T05:06:22.108Z,97.50
2018-03-25T05:08:49.576Z,97.70
2018-03-25T05:11:17.036Z,97.70
2018-03-25T05:13:44.513Z,97.50
2018-03-25T05:16:12.740Z,97.20
2018-03-25T05:18:40.206Z,97.20
2018-03-25T05:21:07.661Z,97.10
2018-03-25T05:23:35.137Z,97.10
2018-03-25T05:26:02.596Z,97.30
2018-03-25T05:28:30.065Z,97.50
2018-03-25T05:30:58.308Z,97.30
2018-03-25T05:33:25.771Z,97.30
2018-03-25T05:35:53.224Z,97.20
2018-03-25T05:38:20.681Z,97.40
2018-03-25T05:40:48.136Z,97.20
2018-03-25T05:43:15.597Z,97.10
2018-03-25T05:45:43.061Z,97.00
2018-03-25T05:48:11.013Z,97.10
2018-03-25T05:50:38.467Z,97.10
2018-03-25T05:53:05.940Z,96.90
2018-03-25T05:55:33.418Z,96.90
2018-03-25T05:58:01.645Z,96.70
2018-03-25T06:00:29.109Z,96.70
2018-03-25T06:02:56.578Z,96.50
2018-03-25T06:05:25.544Z,96.40
2018-03-25T06:07:53.000Z,96.40
2018-03-25T06:10:20.460Z,95.80
2018-03-25T06:12:47.916Z,95.80
2018-03-25T06:15:15.382Z,95.50
2018-03-25T06:17:42.837Z,95.60
2018-03-25T06:20:10.324Z,95.40
2018-03-25T06:22:37.784Z,95.40
2018-03-25T06:25:06.004Z,95.10
2018-03-25T06:27:33.465Z,94.80
2018-03-25T06:30:00.919Z,94.80
2018-03-25T06:32:28.372Z,94.80
2018-03-25T06:34:55.823Z,94.70
2018-03-25T06:37:23.288Z,94.10
2018-03-25T06:39:50.748Z,94.20
2018-03-25T06:42:18.203Z,94.20
2018-03-25T06:44:45.729Z,94.30
2018-03-25T06:47:13.950Z,94.50
2018-03-25T06:49:41.409Z,94.50
2018-03-25T06:52:08.861Z,94.70
2018-03-25T06:54:36.324Z,94.40
2018-03-25T06:57:04.538Z,94.50
2018-03-25T06:59:32.756Z,94.30
2018-03-25T07:02:00.330Z,94.30
2018-03-25T07:04:27.757Z,94.30
2018-03-25T07:06:55.221Z,94.30
2018-03-25T07:09:22.669Z,93.60
2018-03-25T07:11:50.131Z,93.70
2018-03-25T07:14:17.582Z,93.80
2018-03-25T07:16:45.034Z,92.50
2018-03-25T07:19:12.485Z,92.70
2018-03-25T07:21:39.956Z,91.90
2018-03-25T07:24:07.413Z,92.00
2018-03-25T07:26:34.856Z,92.00
2018-03-25T07:29:02.456Z,91.40
2018-03-25T07:31:29.914Z,90.70
2018-03-25T07:33:58.225Z,88.90
2018-03-25T07:36:25.721Z,88.70
2018-03-25T07:38:53.196Z,86.20
2018-03-25T07:41:20.649Z,77.70
2018-03-25T07:43:48.095Z,70.70
2018-03-25T07:46:15.577Z,61.30
2018-03-25T07:48:43.036Z,53.30
2018-03-25T07:51:10.495Z,48.40
2018-03-25T07:53:37.953Z,42.70
2018-03-25T07:56:06.913Z,40.90
2018-03-25T07:58:34.364Z,40.70
2018-03-25T08:01:01.935Z,39.20
2018-03-25T08:03:29.388Z,36.10
2018-03-25T08:05:56.849Z,32.80
2018-03-25T08:08:24.302Z,30.40
2018-03-25T08:10:51.760Z,32.20
2018-03-25T08:13:19.204Z,30.90
2018-03-25T08:15:46.661Z,30.00
2018-03-25T08:18:14.881Z,28.30
2018-03-25T08:20:42.476Z,28.80
2018-03-25T08:23:09.937Z,28.20
2018-03-25T08:25:37.404Z,27.00
2018-03-25T08:28:04.886Z,26.50
2018-03-25T08:30:32.365Z,25.90
2018-03-25T08:32:59.821Z,26.50
2018-03-25T08:35:27.277Z,27.10
2018-03-25T08:37:54.734Z,25.70
2018-03-25T08:40:22.968Z,26.20
2018-03-25T08:42:50.425Z,26.10
2018-03-25T08:45:17.958Z,24.80
2018-03-25T08:47:45.433Z,25.30
2018-03-25T08:50:12.882Z,24.20
2018-03-25T08:52:40.341Z,25.00
2018-03-25T08:55:07.944Z,24.40
2018-03-25T08:57:35.415Z,24.30
2018-03-25T09:00:02.872Z,23.50
2018-03-25T09:02:30.326Z,24.40
2018-03-25T09:04:57.776Z,24.20
2018-03-25T09:07:25.241Z,24.10
2018-03-25T09:09:52.724Z,24.40
2018-03-25T09:12:20.217Z,22.70
2018-03-25T09:14:47.676Z,21.80
2018-03-25T09:17:15.138Z,21.90
2018-03-25T09:19:42.753Z,22.70
2018-03-25T09:22:10.274Z,22.20
2018-03-25T09:24:37.684Z,20.30
2018-03-25T09:27:05.168Z,20.40
2018-03-25T09:29:32.630Z,20.20
2018-03-25T09:32:00.856Z,20.90
2018-03-25T09:34:28.316Z,20.90
2018-03-25T09:36:55.774Z,22.60
2018-03-25T09:39:23.237Z,22.70
2018-03-25T09:41:50.713Z,20.80
2018-03-25T09:44:18.164Z,20.90
2018-03-25T09:46:45.622Z,20.60
2018-03-25T09:49:13.087Z,19.80
2018-03-25T09:51:41.320Z,21.90
2018-03-25T09:54:09.621Z,21.90
2018-03-25T09:56:37.137Z,21.90
2018-03-25T09:59:04.594Z,23.20
2018-03-25T10:01:34.651Z,22.70
2018-03-25T10:04:02.112Z,22.70
2018-03-25T10:06:29.574Z,21.50
2018-03-25T10:08:57.035Z,21.80
2018-03-25T10:11:24.564Z,21.90
2018-03-25T10:13:52.868Z,21.40
2018-03-25T10:16:20.331Z,21.30
2018-03-25T10:18:47.783Z,20.60
2018-03-25T10:21:15.242Z,20.30
2018-03-25T10:23:43.473Z,20.40
2018-03-25T10:26:11.693Z,20.80
2018-03-25T10:28:39.916Z,22.20
2018-03-25T10:31:08.142Z,20.30
2018-03-25T10:33:35.600Z,20.30
2018-03-25T10:36:03.058Z,19.80
2018-03-25T10:38:30.512Z,19.50
2018-03-25T10:40:57.981Z,19.90
2018-03-25T10:43:25.440Z,19.90
2018-03-25T10:45:52.898Z,20.20
2018-03-25T10:48:20.402Z,21.60
2018-03-25T10:50:47.876Z,22.40
2018-03-25T10:53:15.338Z,21.80
2018-03-25T10:55:42.798Z,22.50
2018-03-25T10:58:10.260Z,21.40
2018-03-25T11:00:37.724Z,23.40
2018-03-25T11:03:05.177Z,22.20
2018-03-25T11:05:32.636Z,20.80
2018-03-25T11:08:00.094Z,19.20
2018-03-25T11:10:27.611Z,19.20
2018-03-25T11:12:55.085Z,20.20
2018-03-25T11:15:22.555Z,20.60
2018-03-25T11:17:50.013Z,21.30
2018-03-25T11:20:17.467Z,23.20
2018-03-25T11:22:44.928Z,22.70
2018-03-25T11:25:12.384Z,22.70
2018-03-25T11:27:39.840Z,21.80
2018-03-25T11:30:07.300Z,21.40
2018-03-25T11:32:34.753Z,22.50
2018-03-25T11:35:02.218Z,23.70
2018-03-25T11:37:29.666Z,25.10
2018-03-25T11:39:57.128Z,26.40
2018-03-25T11:42:24.585Z,26.50
2018-03-25T11:44:52.040Z,26.70
2018-03-25T11:47:19.497Z,28.60
2018-03-25T11:49:46.961Z,26.00
2018-03-25T11:52:14.425Z,26.30
2018-03-25T11:54:41.900Z,26.30
2018-03-25T11:57:09.344Z,27.80
2018-03-25T11:59:36.813Z,26.50
2018-03-25T12:02:05.029Z,27.70
2018-03-25T12:04:32.485Z,27.40
2018-03-25T12:06:59.985Z,28.00
2018-03-25T12:09:27.402Z,27.80
2018-03-25T12:11:54.864Z,26.70
2018-03-25T12:14:22.320Z,26.50
2018-03-25T12:16:49.784Z,26.80
2018-03-25T12:19:17.240Z,26.80
2018-03-25T12:21:44.700Z,26.30
2018-03-25T12:24:12.173Z,26.70
2018-03-25T12:26:39.636Z,26.90
2018-03-25T12:29:07.146Z,28.90
2018-03-25T12:31:34.615Z,28.40
2018-03-25T12:34:02.198Z,28.50
2018-03-25T12:36:29.730Z,27.20
2018-03-25T12:38:57.180Z,27.00
2018-03-25T12:41:24.650Z,25.90
2018-03-25T12:43:52.113Z,26.10
2018-03-25T12:46:19.572Z,27.60
2018-03-25T12:48:47.030Z,28.00
2018-03-25T12:51:14.494Z,27.70
2018-03-25T12:53:42.766Z,27.90
2018-03-25T12:56:10.232Z,26.30
2018-03-25T12:58:37.697Z,25.00
2018-03-25T13:01:05.145Z,26.00
2018-03-25T13:03:32.595Z,27.50
2018-03-25T13:06:00.041Z,28.00
2018-03-25T13:08:27.504Z,27.60
2018-03-25T13:10:54.954Z,27.70
2018-03-25T13:13:22.412Z,26.40
2018-03-25T13:15:50.001Z,27.10
2018-03-25T13:18:17.403Z,26.80
2018-03-25T13:20:44.852Z,25.90
2018-03-25T13:23:12.309Z,27.70
2018-03-25T13:25:39.762Z,29.20
2018-03-25T13:28:07.233Z,29.40
2018-03-25T13:30:34.686Z,28.70
2018-03-25T13:33:02.189Z,27.60
2018-03-25T13:35:29.640Z,28.90
2018-03-25T13:37:57.095Z,28.30
2018-03-25T13:40:24.562Z,27.40
2018-03-25T13:42:52.017Z,27.10
2018-03-25T13:45:19.474Z,27.60
2018-03-25T13:47:46.928Z,27.50
2018-03-25T13:50:14.393Z,27.50
2018-03-25T13:52:41.840Z,28.30
2018-03-25T13:55:09.299Z,29.10
2018-03-25T13:57:36.771Z,27.80
2018-03-25T14:00:05.078Z,28.60
2018-03-25T14:02:32.582Z,29.00
2018-03-25T14:05:00.144Z,27.00
2018-03-25T14:07:27.594Z,28.20
2018-03-25T14:09:55.049Z,27.60
2018-03-25T14:12:22.497Z,28.10
2018-03-25T14:14:49.959Z,28.00
2018-03-25T14:17:17.416Z,29.50
2018-03-25T14:19:45.502Z,29.10
2018-03-25T14:22:12.955Z,30.20
2018-03-25T14:24:40.416Z,29.20
2018-03-25T14:27:07.877Z,29.90
2018-03-25T14:29:35.329Z,29.70
2018-03-25T14:32:02.850Z,29.50
2018-03-25T14:34:30.300Z,30.30
2018-03-25T14:36:57.782Z,29.70
2018-03-25T14:39:25.279Z,30.90
2018-03-25T14:41:52.757Z,29.90
2018-03-25T14:44:20.214Z,29.60
2018-03-25T14:46:47.741Z,28.80
2018-03-25T14:49:15.971Z,32.60
2018-03-25T14:51:43.459Z,32.60
2018-03-25T14:54:10.912Z,33.40
2018-03-25T14:56:38.363Z,31.70
2018-03-25T14:59:05.834Z,29.90
2018-03-25T15:01:33.279Z,31.40
2018-03-25T15:04:00.743Z,30.70
2018-03-25T15:06:28.192Z,31.00
2018-03-25T15:08:55.665Z,30.60
2018-03-25T15:11:23.888Z,30.20
2018-03-25T15:13:51.353Z,30.00
2018-03-25T15:16:18.819Z,31.20
2018-03-25T15:18:46.287Z,30.70
2018-03-25T15:21:13.753Z,30.70
2018-03-25T15:23:41.208Z,30.10
2018-03-25T15:26:08.696Z,30.40
2018-03-25T15:28:36.914Z,34.40
2018-03-25T15:31:04.388Z,34.30
2018-03-25T15:33:31.848Z,33.00
2018-03-25T15:35:59.305Z,33.00
2018-03-25T15:38:26.763Z,33.50
2018-03-25T15:40:54.235Z,34.00
2018-03-25T15:43:21.746Z,34.10
2018-03-25T15:45:49.196Z,34.50
2018-03-25T15:48:16.656Z,35.20
2018-03-25T15:50:44.135Z,35.60
2018-03-25T15:53:11.618Z,37.10
2018-03-25T15:55:39.846Z,36.50
2018-03-25T15:58:07.317Z,36.50
2018-03-25T16:00:34.774Z,36.60
2018-03-25T16:03:02.232Z,36.50
2018-03-25T16:05:29.717Z,36.30
2018-03-25T16:07:57.219Z,37.00
2018-03-25T16:10:24.673Z,37.20
2018-03-25T16:12:52.129Z,37.00
2018-03-25T16:15:20.348Z,38.30
2018-03-25T16:17:47.809Z,38.30
2018-03-25T16:20:15.269Z,38.30
2018-03-25T16:22:42.727Z,37.60
2018-03-25T16:25:10.184Z,38.60
2018-03-25T16:27:37.636Z,39.30
2018-03-25T16:30:05.088Z,38.80
2018-03-25T16:32:32.542Z,38.60
2018-03-25T16:34:59.999Z,39.50
2018-03-25T16:37:27.455Z,39.60
2018-03-25T16:39:54.951Z,40.60
2018-03-25T16:42:22.410Z,41.80
2018-03-25T16:44:49.872Z,42.10
2018-03-25T16:47:17.337Z,44.50
2018-03-25T16:49:44.801Z,45.80
2018-03-25T16:52:12.265Z,47.60
2018-03-25T16:54:39.715Z,48.50
2018-03-25T16:57:07.169Z,49.40
2018-03-25T16:59:34.620Z,48.00
2018-03-25T17:02:02.078Z,47.50
2018-03-25T17:04:29.547Z,49.20
2018-03-25T17:06:57.774Z,52.10
2018-03-25T17:09:25.993Z,50.00
2018-03-25T17:11:53.445Z,50.00
2018-03-25T17:14:20.902Z,50.10
2018-03-25T17:16:48.357Z,51.10
2018-03-25T17:19:15.821Z,50.50
2018-03-25T17:21:43.279Z,52.10
2018-03-25T17:24:10.733Z,50.60
2018-03-25T17:26:38.197Z,52.50
2018-03-25T17:29:05.652Z,51.90
2018-03-25T17:31:33.165Z,52.80
2018-03-25T17:34:00.568Z,53.10
2018-03-25T17:36:28.043Z,52.60
2018-03-25T17:38:55.498Z,53.70
2018-03-25T17:41:22.957Z,54.80
2018-03-25T17:43:51.265Z,55.60
2018-03-25T17:46:19.481Z,57.40
2018-03-25T17:48:46.954Z,57.30
2018-03-25T17:51:14.423Z,58.10
2018-03-25T17:53:41.892Z,60.00
2018-03-25T17:56:09.358Z,60.20
2018-03-25T17:58:37.573Z,61.40
2018-03-25T18:01:05.072Z,61.40
2018-03-25T18:03:32.542Z,63.50
2018-03-25T18:06:00.773Z,66.60
2018-03-25T18:08:28.236Z,66.60
2018-03-25T18:10:55.699Z,68.60
2018-03-25T18:13:23.151Z,67.90
2018-03-25T18:15:50.611Z,68.80
2018-03-25T18:18:18.071Z,71.20
2018-03-25T18:20:56.291Z,71.50
2018-03-25T18:23:13.109Z,73.40
2018-03-25T18:25:40.566Z,73.90
2018-03-25T18:28:08.017Z,75.60
2018-03-25T18:30:35.554Z,75.80
2018-03-25T18:33:03.460Z,77.50
2018-03-25T18:35:31.728Z,78.60
2018-03-25T18:37:59.985Z,78.20
2018-03-25T18:40:27.900Z,78.10
2018-03-25T18:42:55.349Z,79.40
2018-03-25T18:45:22.819Z,80.60
2018-03-25T18:47:50.276Z,81.40
2018-03-25T18:50:17.797Z,81.90
2018-03-25T18:52:46.025Z,80.30
2018-03-25T18:55:13.477Z,80.60
2018-03-25T18:57:40.934Z,80.90
2018-03-25T19:00:08.397Z,80.90
2018-03-25T19:02:35.877Z,82.60
2018-03-25T19:05:03.341Z,82.70
2018-03-25T19:07:30.789Z,83.70
2018-03-25T19:09:58.318Z,84.00
2018-03-25T19:12:26.490Z,84.20
2018-03-25T19:14:53.944Z,84.30
2018-03-25T19:17:21.399Z,84.10
2018-03-25T19:19:48.849Z,83.90
2018-03-25T19:22:16.308Z,83.80
2018-03-25T19:24:43.777Z,83.10
2018-03-25T19:27:11.231Z,83.00
2018-03-25T19:29:38.683Z,82.70
2018-03-25T19:32:06.204Z,82.90
2018-03-25T19:34:33.612Z,83.90
2018-03-25T19:37:01.083Z,83.70
2018-03-25T19:39:28.534Z,84.60
2018-03-25T19:41:55.991Z,84.90
2018-03-25T19:44:23.445Z,85.00
2018-03-25T19:46:51.613Z,85.40
2018-03-25T19:49:19.101Z,85.20
2018-03-25T19:51:46.557Z,85.60
2018-03-25T19:54:14.781Z,85.10
2018-03-25T19:56:42.241Z,85.00
2018-03-25T19:59:09.692Z,85.30
2018-03-25T20:01:37.144Z,84.90
2018-03-25T20:04:04.597Z,85.40
2018-03-25T20:06:32.062Z,86.00
2018-03-25T20:08:59.556Z,86.30
2018-03-25T20:11:26.999Z,86.50
2018-03-25T20:13:54.448Z,86.70
2018-03-25T20:16:21.940Z,86.80
2018-03-25T20:18:49.422Z,86.60
2018-03-25T20:21:16.884Z,87.00
2018-03-25T20:23:44.955Z,87.20
2018-03-25T20:26:12.426Z,87.00
2018-03-25T20:28:39.880Z,86.70
2018-03-25T20:31:07.337Z,86.80
2018-03-25T20:33:34.806Z,86.90
2018-03-25T20:36:02.271Z,86.90
2018-03-25T20:38:29.716Z,87.40
2018-03-25T20:40:57.163Z,87.80
2018-03-25T20:43:24.622Z,88.30
2018-03-25T20:45:52.084Z,88.40
2018-03-25T20:48:19.551Z,88.70
2018-03-25T20:50:47.009Z,88.80
2018-03-25T20:53:14.462Z,89.30
2018-03-25T20:55:41.917Z,89.70
2018-03-25T20:58:09.377Z,90.10
2018-03-25T21:00:36.829Z,90.30
2018-03-25T21:03:05.056Z,90.00
2018-03-25T21:05:34.182Z,89.90
2018-03-25T21:08:01.641Z,89.90
2018-03-25T21:10:29.098Z,89.70
2018-03-25T21:12:56.553Z,90.20
2018-03-25T21:15:24.009Z,90.30
2018-03-25T21:17:51.459Z,90.50
2018-03-25T21:20:18.917Z,90.60
2018-03-25T21:22:46.357Z,90.50
2018-03-25T21:25:13.806Z,90.90
2018-03-25T21:27:42.029Z,91.20
2018-03-25T21:30:09.485Z,91.20
2018-03-25T21:32:36.932Z,91.50
2018-03-25T21:35:04.401Z,91.30
2018-03-25T21:37:31.853Z,91.30
2018-03-25T21:39:59.308Z,90.70
2018-03-25T21:42:26.755Z,91.00
2018-03-25T21:44:54.228Z,90.90
2018-03-25T21:47:21.672Z,90.80
2018-03-25T21:49:49.125Z,90.70
2018-03-25T21:52:16.585Z,90.90
2018-03-25T21:54:44.040Z,90.90
2018-03-25T21:57:11.493Z,90.90
2018-03-25T21:59:38.944Z,91.10
2018-03-25T22:02:06.391Z,91.20
2018-03-25T22:04:33.845Z,91.30
2018-03-25T22:07:01.293Z,91.30
2018-03-25T22:09:28.740Z,91.40
2018-03-25T22:11:56.189Z,91.60
2018-03-25T22:14:24.425Z,91.60
2018-03-25T22:16:52.657Z,91.80
2018-03-25T22:19:20.104Z,92.00
2018-03-25T22:21:47.568Z,91.50
2018-03-25T22:24:15.012Z,91.50
2018-03-25T22:26:42.477Z,91.50
2018-03-25T22:29:09.928Z,91.70
2018-03-25T22:31:37.384Z,91.80
2018-03-25T22:34:04.836Z,91.90
2018-03-25T22:36:33.054Z,91.80
2018-03-25T22:39:00.502Z,91.80
2018-03-25T22:41:27.950Z,92.10
2018-03-25T22:43:55.410Z,92.20
2018-03-25T22:46:22.869Z,92.20
2018-03-25T22:48:50.329Z,92.10
2018-03-25T22:51:17.780Z,92.00
2018-03-25T22:53:45.246Z,92.10
2018-03-25T22:56:12.701Z,91.90
2018-03-25T22:58:40.159Z,92.00
2018-03-25T23:01:07.618Z,91.90
2018-03-25T23:03:35.073Z,91.50
2018-03-25T23:06:02.526Z,91.50
2018-03-25T23:08:29.973Z,91.50
2018-03-25T23:10:57.421Z,91.40
2018-03-25T23:13:24.870Z,91.40
2018-03-25T23:15:52.320Z,91.30
2018-03-25T23:18:19.776Z,91.50
2018-03-25T23:20:47.239Z,91.90
2018-03-25T23:23:14.687Z,91.60
2018-03-25T23:25:42.185Z,91.60
2018-03-25T23:28:09.596Z,91.70
2018-03-25T23:30:37.056Z,91.90
2018-03-25T23:33:04.504Z,92.00
2018-03-25T23:35:32.753Z,92.20
2018-03-25T23:38:00.200Z,92.20
2018-03-25T23:40:27.640Z,92.30
2018-03-25T23:42:55.088Z,92.40
2018-03-25T23:45:22.532Z,92.50
2018-03-25T23:47:49.988Z,92.30
2018-03-25T23:50:17.436Z,92.30
2018-03-25T23:52:44.892Z,92.30
2018-03-25T23:55:12.348Z,92.50
2018-03-25T23:57:39.809Z,92.80
